Bonnyville, Canada
Current Conditions -  °F | °C
As of 9:00 AM on Friday 31 Oct 2014 (Local Time) from CYOD Reporting Station
Broken Clouds Broken Clouds  
Wind Chill: 26°   Ceiling: 25000
Heat Index: 34°   Visibility: 12mi
Dew Point: 30°   Wind: 9mph
Humidity: 87%   Direction: 140°SE
Pressure: 29.77"   Gusts: NA
Location:  54.27°N, 110.75°W
Report Text: CYOD 311500Z 14008KT 12SM FEW015 BKN250 01/M01 A2977 RMK SC2CC2SLP107
Loading
Personal Weather Stations






























Interactive Weather Map
Tropical Storm Tracking
New forecast layout! Learn more

10-Day Weather Forecast

Advertisements
Track Severe Weather on mobile